sensor_id;sensor_type;location;lat;lon;timestamp;P1;durP1;ratioP1;P2;durP2;ratioP2
5277;SDS011;2662;51.194;6.614;2023-05-31T00:01:12;9.50;;;6.40;;
5277;SDS011;2662;51.194;6.614;2023-05-31T00:03:39;10.43;;;5.63;;
5277;SDS011;2662;51.194;6.614;2023-05-31T00:06:08;9.30;;;6.50;;
5277;SDS011;2662;51.194;6.614;2023-05-31T00:08:35;9.97;;;6.60;;
5277;SDS011;2662;51.194;6.614;2023-05-31T00:11:02;10.87;;;6.87;;
5277;SDS011;2662;51.194;6.614;2023-05-31T00:13:30;13.17;;;6.77;;
5277;SDS011;2662;51.194;6.614;2023-05-31T00:15:56;9.67;;;6.10;;
5277;SDS011;2662;51.194;6.614;2023-05-31T00:18:23;10.37;;;6.33;;
5277;SDS011;2662;51.194;6.614;2023-05-31T00:20:50;15.37;;;7.13;;
5277;SDS011;2662;51.194;6.614;2023-05-31T00:23:17;12.90;;;6.43;;
5277;SDS011;2662;51.194;6.614;2023-05-31T00:25:44;12.93;;;6.83;;
5277;SDS011;2662;51.194;6.614;2023-05-31T00:28:10;13.73;;;6.23;;
5277;SDS011;2662;51.194;6.614;2023-05-31T00:30:38;12.27;;;6.70;;
5277;SDS011;2662;51.194;6.614;2023-05-31T00:33:05;11.63;;;7.17;;
5277;SDS011;2662;51.194;6.614;2023-05-31T00:35:32;12.97;;;7.47;;
5277;SDS011;2662;51.194;6.614;2023-05-31T00:38:01;14.47;;;7.30;;
5277;SDS011;2662;51.194;6.614;2023-05-31T00:40:30;16.73;;;7.07;;
5277;SDS011;2662;51.194;6.614;2023-05-31T00:42:57;16.00;;;7.00;;
5277;SDS011;2662;51.194;6.614;2023-05-31T00:45:24;11.30;;;6.90;;
5277;SDS011;2662;51.194;6.614;2023-05-31T00:47:52;13.33;;;6.73;;
5277;SDS011;2662;51.194;6.614;2023-05-31T00:50:19;14.50;;;7.00;;
5277;SDS011;2662;51.194;6.614;2023-05-31T00:52:46;11.67;;;7.20;;
5277;SDS011;2662;51.194;6.614;2023-05-31T00:55:13;11.63;;;7.20;;
5277;SDS011;2662;51.194;6.614;2023-05-31T00:57:41;12.67;;;7.10;;
5277;SDS011;2662;51.194;6.614;2023-05-31T01:00:09;11.57;;;6.70;;
5277;SDS011;2662;51.194;6.614;2023-05-31T01:02:37;16.80;;;7.00;;
5277;SDS011;2662;51.194;6.614;2023-05-31T01:05:08;13.20;;;7.77;;
5277;SDS011;2662;51.194;6.614;2023-05-31T01:07:35;12.07;;;7.60;;
5277;SDS011;2662;51.194;6.614;2023-05-31T01:10:03;14.33;;;8.10;;
5277;SDS011;2662;51.194;6.614;2023-05-31T01:12:33;11.67;;;7.60;;
5277;SDS011;2662;51.194;6.614;2023-05-31T01:15:08;19.77;;;8.33;;
5277;SDS011;2662;51.194;6.614;2023-05-31T01:17:39;12.87;;;7.17;;
5277;SDS011;2662;51.194;6.614;2023-05-31T01:20:15;13.23;;;7.27;;
5277;SDS011;2662;51.194;6.614;2023-05-31T01:22:45;14.33;;;6.80;;
5277;SDS011;2662;51.194;6.614;2023-05-31T01:25:49;19.30;;;7.17;;
5277;SDS011;2662;51.194;6.614;2023-05-31T01:28:30;10.77;;;7.00;;
5277;SDS011;2662;51.194;6.614;2023-05-31T01:31:02;19.60;;;7.67;;
5277;SDS011;2662;51.194;6.614;2023-05-31T01:33:31;11.27;;;7.00;;
5277;SDS011;2662;51.194;6.614;2023-05-31T01:35:59;10.43;;;7.20;;
5277;SDS011;2662;51.194;6.614;2023-05-31T01:38:26;15.27;;;7.63;;
5277;SDS011;2662;51.194;6.614;2023-05-31T01:40:53;15.17;;;8.10;;
5277;SDS011;2662;51.194;6.614;2023-05-31T01:43:22;13.57;;;8.03;;
5277;SDS011;2662;51.194;6.614;2023-05-31T01:45:52;14.17;;;7.93;;
5277;SDS011;2662;51.194;6.614;2023-05-31T01:48:20;15.17;;;8.07;;
5277;SDS011;2662;51.194;6.614;2023-05-31T01:50:48;10.93;;;7.80;;
5277;SDS011;2662;51.194;6.614;2023-05-31T01:53:17;12.77;;;7.60;;
5277;SDS011;2662;51.194;6.614;2023-05-31T01:55:44;13.10;;;7.67;;
5277;SDS011;2662;51.194;6.614;2023-05-31T01:58:11;13.73;;;8.00;;
5277;SDS011;2662;51.194;6.614;2023-05-31T02:00:40;14.27;;;8.23;;
5277;SDS011;2662;51.194;6.614;2023-05-31T02:03:08;19.20;;;8.57;;
5277;SDS011;2662;51.194;6.614;2023-05-31T02:05:36;18.33;;;8.37;;
5277;SDS011;2662;51.194;6.614;2023-05-31T02:08:03;15.27;;;8.40;;
5277;SDS011;2662;51.194;6.614;2023-05-31T02:10:30;14.37;;;8.00;;
5277;SDS011;2662;51.194;6.614;2023-05-31T02:12:57;16.23;;;8.50;;
5277;SDS011;2662;51.194;6.614;2023-05-31T02:15:23;17.83;;;8.20;;
5277;SDS011;2662;51.194;6.614;2023-05-31T02:17:50;20.00;;;7.77;;
5277;SDS011;2662;51.194;6.614;2023-05-31T02:20:18;14.23;;;7.80;;
5277;SDS011;2662;51.194;6.614;2023-05-31T02:22:45;15.37;;;8.80;;
5277;SDS011;2662;51.194;6.614;2023-05-31T02:25:13;14.60;;;8.27;;
5277;SDS011;2662;51.194;6.614;2023-05-31T02:27:41;16.30;;;8.90;;
5277;SDS011;2662;51.194;6.614;2023-05-31T02:30:09;19.27;;;8.17;;
5277;SDS011;2662;51.194;6.614;2023-05-31T02:32:36;17.80;;;9.23;;
5277;SDS011;2662;51.194;6.614;2023-05-31T02:35:03;12.93;;;7.60;;
5277;SDS011;2662;51.194;6.614;2023-05-31T02:37:32;14.87;;;8.60;;
5277;SDS011;2662;51.194;6.614;2023-05-31T02:40:00;14.43;;;8.30;;
5277;SDS011;2662;51.194;6.614;2023-05-31T02:42:32;13.10;;;9.13;;
5277;SDS011;2662;51.194;6.614;2023-05-31T02:44:58;15.27;;;8.63;;
5277;SDS011;2662;51.194;6.614;2023-05-31T02:47:25;15.30;;;8.70;;
5277;SDS011;2662;51.194;6.614;2023-05-31T02:49:52;17.37;;;8.37;;
5277;SDS011;2662;51.194;6.614;2023-05-31T02:52:19;14.70;;;8.40;;
5277;SDS011;2662;51.194;6.614;2023-05-31T02:54:47;19.30;;;8.77;;
5277;SDS011;2662;51.194;6.614;2023-05-31T02:57:13;16.17;;;9.00;;
5277;SDS011;2662;51.194;6.614;2023-05-31T02:59:42;13.87;;;8.30;;
5277;SDS011;2662;51.194;6.614;2023-05-31T03:02:09;18.17;;;9.10;;
5277;SDS011;2662;51.194;6.614;2023-05-31T03:04:36;19.43;;;9.57;;
5277;SDS011;2662;51.194;6.614;2023-05-31T03:07:03;19.60;;;8.70;;
5277;SDS011;2662;51.194;6.614;2023-05-31T03:09:30;23.30;;;9.63;;
5277;SDS011;2662;51.194;6.614;2023-05-31T03:11:58;19.53;;;9.60;;
5277;SDS011;2662;51.194;6.614;2023-05-31T03:14:25;21.60;;;9.23;;
5277;SDS011;2662;51.194;6.614;2023-05-31T03:16:52;16.00;;;10.10;;
5277;SDS011;2662;51.194;6.614;2023-05-31T03:19:19;19.90;;;10.10;;
5277;SDS011;2662;51.194;6.614;2023-05-31T03:21:46;15.47;;;8.47;;
5277;SDS011;2662;51.194;6.614;2023-05-31T03:24:12;18.37;;;10.13;;
5277;SDS011;2662;51.194;6.614;2023-05-31T03:26:39;17.67;;;9.50;;
5277;SDS011;2662;51.194;6.614;2023-05-31T03:29:07;18.80;;;10.43;;
5277;SDS011;2662;51.194;6.614;2023-05-31T03:31:34;17.53;;;10.17;;
5277;SDS011;2662;51.194;6.614;2023-05-31T03:34:01;21.43;;;10.20;;
5277;SDS011;2662;51.194;6.614;2023-05-31T03:36:28;18.10;;;10.57;;
5277;SDS011;2662;51.194;6.614;2023-05-31T03:38:56;18.13;;;10.83;;
5277;SDS011;2662;51.194;6.614;2023-05-31T03:41:22;17.83;;;10.00;;
5277;SDS011;2662;51.194;6.614;2023-05-31T03:43:50;17.70;;;10.13;;
5277;SDS011;2662;51.194;6.614;2023-05-31T03:46:18;16.50;;;10.17;;
5277;SDS011;2662;51.194;6.614;2023-05-31T03:48:45;18.60;;;10.93;;
5277;SDS011;2662;51.194;6.614;2023-05-31T03:51:12;20.20;;;10.10;;
5277;SDS011;2662;51.194;6.614;2023-05-31T03:53:38;20.23;;;11.10;;
5277;SDS011;2662;51.194;6.614;2023-05-31T03:56:05;17.07;;;9.87;;
5277;SDS011;2662;51.194;6.614;2023-05-31T03:58:32;16.57;;;9.93;;
5277;SDS011;2662;51.194;6.614;2023-05-31T04:00:59;19.43;;;10.80;;
5277;SDS011;2662;51.194;6.614;2023-05-31T04:03:28;18.67;;;11.57;;
5277;SDS011;2662;51.194;6.614;2023-05-31T04:05:56;24.13;;;10.60;;
5277;SDS011;2662;51.194;6.614;2023-05-31T04:08:22;19.13;;;10.47;;
5277;SDS011;2662;51.194;6.614;2023-05-31T04:10:49;18.17;;;10.03;;
5277;SDS011;2662;51.194;6.614;2023-05-31T04:13:16;19.60;;;9.80;;
5277;SDS011;2662;51.194;6.614;2023-05-31T04:15:43;18.73;;;10.80;;
5277;SDS011;2662;51.194;6.614;2023-05-31T04:18:09;22.40;;;10.27;;
5277;SDS011;2662;51.194;6.614;2023-05-31T04:20:37;21.27;;;10.77;;
5277;SDS011;2662;51.194;6.614;2023-05-31T04:23:04;20.43;;;10.83;;
5277;SDS011;2662;51.194;6.614;2023-05-31T04:25:31;20.63;;;9.80;;
5277;SDS011;2662;51.194;6.614;2023-05-31T04:27:58;17.73;;;10.60;;
5277;SDS011;2662;51.194;6.614;2023-05-31T04:30:25;20.07;;;10.67;;
5277;SDS011;2662;51.194;6.614;2023-05-31T04:32:52;16.10;;;10.60;;
5277;SDS011;2662;51.194;6.614;2023-05-31T04:35:22;18.80;;;11.10;;
5277;SDS011;2662;51.194;6.614;2023-05-31T04:37:50;17.40;;;9.97;;
5277;SDS011;2662;51.194;6.614;2023-05-31T04:40:17;14.37;;;9.50;;
5277;SDS011;2662;51.194;6.614;2023-05-31T04:42:44;17.60;;;10.10;;
5277;SDS011;2662;51.194;6.614;2023-05-31T04:45:11;15.20;;;9.43;;
5277;SDS011;2662;51.194;6.614;2023-05-31T04:47:40;19.90;;;10.53;;
5277;SDS011;2662;51.194;6.614;2023-05-31T04:50:07;16.13;;;9.90;;
5277;SDS011;2662;51.194;6.614;2023-05-31T04:52:34;14.73;;;9.30;;
5277;SDS011;2662;51.194;6.614;2023-05-31T04:55:06;15.03;;;9.50;;
5277;SDS011;2662;51.194;6.614;2023-05-31T04:57:34;16.60;;;9.77;;
5277;SDS011;2662;51.194;6.614;2023-05-31T05:00:01;16.87;;;10.10;;
5277;SDS011;2662;51.194;6.614;2023-05-31T05:02:33;14.53;;;9.77;;
5277;SDS011;2662;51.194;6.614;2023-05-31T05:05:00;23.47;;;10.17;;
5277;SDS011;2662;51.194;6.614;2023-05-31T05:07:29;14.83;;;9.20;;
5277;SDS011;2662;51.194;6.614;2023-05-31T05:09:56;17.80;;;9.70;;
5277;SDS011;2662;51.194;6.614;2023-05-31T05:12:24;16.20;;;9.60;;
5277;SDS011;2662;51.194;6.614;2023-05-31T05:14:51;14.23;;;9.27;;
5277;SDS011;2662;51.194;6.614;2023-05-31T05:17:17;14.77;;;9.20;;
5277;SDS011;2662;51.194;6.614;2023-05-31T05:19:44;14.43;;;9.50;;
5277;SDS011;2662;51.194;6.614;2023-05-31T05:22:11;14.97;;;9.00;;
5277;SDS011;2662;51.194;6.614;2023-05-31T05:24:38;17.67;;;9.43;;
5277;SDS011;2662;51.194;6.614;2023-05-31T05:27:05;15.23;;;9.40;;
5277;SDS011;2662;51.194;6.614;2023-05-31T05:29:34;13.87;;;8.37;;
5277;SDS011;2662;51.194;6.614;2023-05-31T05:32:00;14.50;;;8.27;;
5277;SDS011;2662;51.194;6.614;2023-05-31T05:34:27;18.00;;;8.00;;
5277;SDS011;2662;51.194;6.614;2023-05-31T05:36:54;18.03;;;8.73;;
5277;SDS011;2662;51.194;6.614;2023-05-31T05:39:22;14.80;;;8.17;;
5277;SDS011;2662;51.194;6.614;2023-05-31T05:41:48;12.50;;;7.40;;
5277;SDS011;2662;51.194;6.614;2023-05-31T05:44:15;13.87;;;8.07;;
5277;SDS011;2662;51.194;6.614;2023-05-31T05:46:43;11.47;;;8.23;;
5277;SDS011;2662;51.194;6.614;2023-05-31T05:49:10;13.37;;;7.50;;
5277;SDS011;2662;51.194;6.614;2023-05-31T05:51:37;14.00;;;7.63;;
5277;SDS011;2662;51.194;6.614;2023-05-31T05:54:04;11.23;;;7.10;;
5277;SDS011;2662;51.194;6.614;2023-05-31T05:56:31;13.07;;;7.03;;
5277;SDS011;2662;51.194;6.614;2023-05-31T05:58:57;9.60;;;6.70;;
5277;SDS011;2662;51.194;6.614;2023-05-31T06:01:24;16.80;;;7.63;;
5277;SDS011;2662;51.194;6.614;2023-05-31T06:03:53;9.27;;;6.93;;
5277;SDS011;2662;51.194;6.614;2023-05-31T06:06:21;10.10;;;6.97;;
5277;SDS011;2662;51.194;6.614;2023-05-31T06:08:48;15.93;;;7.40;;
5277;SDS011;2662;51.194;6.614;2023-05-31T06:11:14;9.33;;;7.43;;
5277;SDS011;2662;51.194;6.614;2023-05-31T06:13:43;11.67;;;7.60;;
5277;SDS011;2662;51.194;6.614;2023-05-31T06:16:10;11.43;;;6.63;;
5277;SDS011;2662;51.194;6.614;2023-05-31T06:18:39;14.10;;;6.77;;
5277;SDS011;2662;51.194;6.614;2023-05-31T06:21:07;9.10;;;6.37;;
5277;SDS011;2662;51.194;6.614;2023-05-31T06:23:34;7.97;;;6.50;;
5277;SDS011;2662;51.194;6.614;2023-05-31T06:26:00;9.93;;;6.20;;
5277;SDS011;2662;51.194;6.614;2023-05-31T06:28:27;9.53;;;5.87;;
5277;SDS011;2662;51.194;6.614;2023-05-31T06:30:54;8.63;;;6.43;;
5277;SDS011;2662;51.194;6.614;2023-05-31T06:33:21;10.80;;;7.20;;
5277;SDS011;2662;51.194;6.614;2023-05-31T06:35:48;9.40;;;5.40;;
5277;SDS011;2662;51.194;6.614;2023-05-31T06:38:16;8.97;;;6.50;;
5277;SDS011;2662;51.194;6.614;2023-05-31T06:40:46;15.20;;;6.87;;
5277;SDS011;2662;51.194;6.614;2023-05-31T06:43:13;7.63;;;5.80;;
5277;SDS011;2662;51.194;6.614;2023-05-31T06:45:40;12.43;;;5.60;;
5277;SDS011;2662;51.194;6.614;2023-05-31T06:48:07;9.17;;;6.00;;
5277;SDS011;2662;51.194;6.614;2023-05-31T06:50:34;9.73;;;5.97;;
5277;SDS011;2662;51.194;6.614;2023-05-31T06:53:01;9.47;;;6.00;;
5277;SDS011;2662;51.194;6.614;2023-05-31T06:55:29;8.90;;;5.70;;
5277;SDS011;2662;51.194;6.614;2023-05-31T06:57:56;14.53;;;5.50;;
5277;SDS011;2662;51.194;6.614;2023-05-31T07:00:22;11.10;;;6.07;;
5277;SDS011;2662;51.194;6.614;2023-05-31T07:02:49;9.87;;;5.53;;
5277;SDS011;2662;51.194;6.614;2023-05-31T07:05:16;12.90;;;5.93;;
5277;SDS011;2662;51.194;6.614;2023-05-31T07:07:43;9.30;;;5.40;;
5277;SDS011;2662;51.194;6.614;2023-05-31T07:10:10;7.10;;;5.10;;
5277;SDS011;2662;51.194;6.614;2023-05-31T07:12:38;9.43;;;5.43;;
5277;SDS011;2662;51.194;6.614;2023-05-31T07:15:05;8.80;;;5.80;;
5277;SDS011;2662;51.194;6.614;2023-05-31T07:17:33;11.67;;;5.73;;
5277;SDS011;2662;51.194;6.614;2023-05-31T07:20:00;14.13;;;5.40;;
5277;SDS011;2662;51.194;6.614;2023-05-31T07:22:28;10.00;;;4.93;;
5277;SDS011;2662;51.194;6.614;2023-05-31T07:24:55;8.60;;;5.10;;
5277;SDS011;2662;51.194;6.614;2023-05-31T07:27:22;6.83;;;4.70;;
5277;SDS011;2662;51.194;6.614;2023-05-31T07:29:50;9.87;;;5.00;;
5277;SDS011;2662;51.194;6.614;2023-05-31T07:32:16;9.27;;;5.03;;
5277;SDS011;2662;51.194;6.614;2023-05-31T07:34:43;7.97;;;5.30;;
5277;SDS011;2662;51.194;6.614;2023-05-31T07:37:10;9.50;;;5.37;;
5277;SDS011;2662;51.194;6.614;2023-05-31T07:39:37;6.97;;;4.57;;
5277;SDS011;2662;51.194;6.614;2023-05-31T07:42:03;18.63;;;4.40;;
5277;SDS011;2662;51.194;6.614;2023-05-31T07:44:30;10.93;;;4.43;;
5277;SDS011;2662;51.194;6.614;2023-05-31T07:46:59;8.87;;;4.50;;
5277;SDS011;2662;51.194;6.614;2023-05-31T07:49:26;7.93;;;4.27;;
5277;SDS011;2662;51.194;6.614;2023-05-31T07:51:52;8.27;;;4.80;;
5277;SDS011;2662;51.194;6.614;2023-05-31T07:54:19;7.80;;;4.30;;
5277;SDS011;2662;51.194;6.614;2023-05-31T07:56:46;11.30;;;4.43;;
5277;SDS011;2662;51.194;6.614;2023-05-31T07:59:13;4.60;;;3.73;;
5277;SDS011;2662;51.194;6.614;2023-05-31T08:01:41;5.70;;;3.63;;
5277;SDS011;2662;51.194;6.614;2023-05-31T08:04:11;6.37;;;3.80;;
5277;SDS011;2662;51.194;6.614;2023-05-31T08:06:38;5.63;;;3.40;;
5277;SDS011;2662;51.194;6.614;2023-05-31T08:09:06;9.10;;;3.90;;
5277;SDS011;2662;51.194;6.614;2023-05-31T08:11:34;6.93;;;3.87;;
5277;SDS011;2662;51.194;6.614;2023-05-31T08:14:01;12.77;;;4.20;;
5277;SDS011;2662;51.194;6.614;2023-05-31T08:16:28;5.00;;;3.73;;
5277;SDS011;2662;51.194;6.614;2023-05-31T08:18:55;6.00;;;3.90;;
5277;SDS011;2662;51.194;6.614;2023-05-31T08:21:23;12.67;;;5.57;;
5277;SDS011;2662;51.194;6.614;2023-05-31T08:23:50;9.17;;;4.13;;
5277;SDS011;2662;51.194;6.614;2023-05-31T08:26:16;12.80;;;4.27;;
5277;SDS011;2662;51.194;6.614;2023-05-31T08:28:43;9.30;;;4.27;;
5277;SDS011;2662;51.194;6.614;2023-05-31T08:31:10;5.70;;;3.27;;
5277;SDS011;2662;51.194;6.614;2023-05-31T08:33:37;11.60;;;4.17;;
5277;SDS011;2662;51.194;6.614;2023-05-31T08:36:05;11.60;;;4.20;;
5277;SDS011;2662;51.194;6.614;2023-05-31T08:38:33;7.80;;;3.70;;
5277;SDS011;2662;51.194;6.614;2023-05-31T08:41:01;4.60;;;3.63;;
5277;SDS011;2662;51.194;6.614;2023-05-31T08:43:29;10.37;;;4.00;;
5277;SDS011;2662;51.194;6.614;2023-05-31T08:45:57;8.33;;;3.40;;
5277;SDS011;2662;51.194;6.614;2023-05-31T08:48:26;5.53;;;3.13;;
5277;SDS011;2662;51.194;6.614;2023-05-31T08:50:57;6.70;;;3.23;;
5277;SDS011;2662;51.194;6.614;2023-05-31T08:53:24;7.27;;;3.10;;
5277;SDS011;2662;51.194;6.614;2023-05-31T08:55:53;9.77;;;3.70;;
5277;SDS011;2662;51.194;6.614;2023-05-31T08:58:20;9.13;;;3.70;;
5277;SDS011;2662;51.194;6.614;2023-05-31T09:00:48;4.10;;;3.50;;
5277;SDS011;2662;51.194;6.614;2023-05-31T09:03:15;10.53;;;4.00;;
5277;SDS011;2662;51.194;6.614;2023-05-31T09:05:42;5.67;;;3.10;;
5277;SDS011;2662;51.194;6.614;2023-05-31T09:08:09;3.60;;;3.30;;
5277;SDS011;2662;51.194;6.614;2023-05-31T09:10:36;7.43;;;3.80;;
5277;SDS011;2662;51.194;6.614;2023-05-31T09:13:04;5.37;;;3.20;;
5277;SDS011;2662;51.194;6.614;2023-05-31T09:15:31;6.10;;;3.20;;
5277;SDS011;2662;51.194;6.614;2023-05-31T09:18:11;6.00;;;3.37;;
5277;SDS011;2662;51.194;6.614;2023-05-31T09:20:39;8.93;;;3.37;;
5277;SDS011;2662;51.194;6.614;2023-05-31T09:23:07;4.80;;;3.20;;
5277;SDS011;2662;51.194;6.614;2023-05-31T09:25:44;7.93;;;3.40;;
5277;SDS011;2662;51.194;6.614;2023-05-31T09:28:13;3.90;;;3.17;;
5277;SDS011;2662;51.194;6.614;2023-05-31T09:30:40;8.40;;;3.00;;
5277;SDS011;2662;51.194;6.614;2023-05-31T09:33:07;12.97;;;3.30;;
5277;SDS011;2662;51.194;6.614;2023-05-31T09:35:35;9.03;;;3.10;;
5277;SDS011;2662;51.194;6.614;2023-05-31T09:38:05;7.40;;;3.33;;
5277;SDS011;2662;51.194;6.614;2023-05-31T09:40:33;4.00;;;3.10;;
5277;SDS011;2662;51.194;6.614;2023-05-31T09:43:00;8.53;;;3.17;;
5277;SDS011;2662;51.194;6.614;2023-05-31T09:45:28;4.87;;;2.83;;
5277;SDS011;2662;51.194;6.614;2023-05-31T09:47:55;6.97;;;3.10;;
5277;SDS011;2662;51.194;6.614;2023-05-31T09:50:22;4.93;;;2.83;;
5277;SDS011;2662;51.194;6.614;2023-05-31T09:52:54;5.67;;;3.07;;
5277;SDS011;2662;51.194;6.614;2023-05-31T09:55:22;6.50;;;3.37;;
5277;SDS011;2662;51.194;6.614;2023-05-31T09:57:50;11.63;;;2.80;;
5277;SDS011;2662;51.194;6.614;2023-05-31T10:00:20;11.30;;;3.03;;
5277;SDS011;2662;51.194;6.614;2023-05-31T10:02:49;2.70;;;2.10;;
5277;SDS011;2662;51.194;6.614;2023-05-31T10:05:16;6.63;;;2.67;;
5277;SDS011;2662;51.194;6.614;2023-05-31T10:07:45;21.47;;;3.10;;
5277;SDS011;2662;51.194;6.614;2023-05-31T10:10:12;4.20;;;2.50;;
5277;SDS011;2662;51.194;6.614;2023-05-31T10:12:42;4.03;;;2.30;;
5277;SDS011;2662;51.194;6.614;2023-05-31T10:15:16;8.60;;;2.70;;
5277;SDS011;2662;51.194;6.614;2023-05-31T10:17:50;6.50;;;2.27;;
5277;SDS011;2662;51.194;6.614;2023-05-31T10:20:24;3.70;;;2.40;;
5277;SDS011;2662;51.194;6.614;2023-05-31T10:22:56;4.10;;;2.43;;
5277;SDS011;2662;51.194;6.614;2023-05-31T10:25:27;5.03;;;2.53;;
5277;SDS011;2662;51.194;6.614;2023-05-31T10:27:57;5.03;;;2.80;;
5277;SDS011;2662;51.194;6.614;2023-05-31T10:30:28;4.23;;;2.57;;
5277;SDS011;2662;51.194;6.614;2023-05-31T10:33:00;10.93;;;3.20;;
5277;SDS011;2662;51.194;6.614;2023-05-31T10:35:32;7.90;;;2.47;;
5277;SDS011;2662;51.194;6.614;2023-05-31T10:37:59;3.17;;;2.10;;
5277;SDS011;2662;51.194;6.614;2023-05-31T10:40:30;5.67;;;2.50;;
5277;SDS011;2662;51.194;6.614;2023-05-31T10:43:00;5.83;;;2.80;;
5277;SDS011;2662;51.194;6.614;2023-05-31T10:45:34;9.20;;;2.87;;
5277;SDS011;2662;51.194;6.614;2023-05-31T10:48:09;7.23;;;2.50;;
5277;SDS011;2662;51.194;6.614;2023-05-31T10:50:50;6.50;;;2.70;;
5277;SDS011;2662;51.194;6.614;2023-05-31T10:53:18;7.17;;;2.93;;
5277;SDS011;2662;51.194;6.614;2023-05-31T10:55:46;8.03;;;2.73;;
5277;SDS011;2662;51.194;6.614;2023-05-31T10:58:26;6.13;;;2.50;;
5277;SDS011;2662;51.194;6.614;2023-05-31T11:00:54;3.47;;;2.80;;
5277;SDS011;2662;51.194;6.614;2023-05-31T11:03:24;7.20;;;2.87;;
5277;SDS011;2662;51.194;6.614;2023-05-31T11:05:55;4.80;;;2.70;;
5277;SDS011;2662;51.194;6.614;2023-05-31T11:08:22;6.33;;;2.37;;
5277;SDS011;2662;51.194;6.614;2023-05-31T11:10:50;4.73;;;2.40;;
5277;SDS011;2662;51.194;6.614;2023-05-31T11:13:16;6.27;;;2.77;;
5277;SDS011;2662;51.194;6.614;2023-05-31T11:15:44;8.23;;;2.50;;
5277;SDS011;2662;51.194;6.614;2023-05-31T11:18:13;9.57;;;2.70;;
5277;SDS011;2662;51.194;6.614;2023-05-31T11:20:42;5.67;;;2.53;;
5277;SDS011;2662;51.194;6.614;2023-05-31T11:23:22;7.23;;;2.83;;
5277;SDS011;2662;51.194;6.614;2023-05-31T11:26:08;5.60;;;2.40;;
5277;SDS011;2662;51.194;6.614;2023-05-31T11:28:53;8.30;;;2.50;;
5277;SDS011;2662;51.194;6.614;2023-05-31T11:34:24;8.90;;;2.50;;
5277;SDS011;2662;51.194;6.614;2023-05-31T11:36:55;5.47;;;2.57;;
5277;SDS011;2662;51.194;6.614;2023-05-31T11:39:23;5.97;;;2.33;;
5277;SDS011;2662;51.194;6.614;2023-05-31T11:41:50;5.83;;;2.57;;
5277;SDS011;2662;51.194;6.614;2023-05-31T11:44:20;5.90;;;2.50;;
5277;SDS011;2662;51.194;6.614;2023-05-31T11:46:52;2.47;;;2.27;;
5277;SDS011;2662;51.194;6.614;2023-05-31T11:49:24;4.30;;;1.93;;
5277;SDS011;2662;51.194;6.614;2023-05-31T11:51:54;4.80;;;2.33;;
5277;SDS011;2662;51.194;6.614;2023-05-31T11:54:24;8.50;;;2.00;;
5277;SDS011;2662;51.194;6.614;2023-05-31T11:56:54;10.13;;;2.57;;
5277;SDS011;2662;51.194;6.614;2023-05-31T11:59:23;4.90;;;2.37;;
5277;SDS011;2662;51.194;6.614;2023-05-31T12:01:55;5.53;;;2.60;;
5277;SDS011;2662;51.194;6.614;2023-05-31T12:04:27;7.60;;;2.47;;
5277;SDS011;2662;51.194;6.614;2023-05-31T12:06:55;4.17;;;2.13;;
5277;SDS011;2662;51.194;6.614;2023-05-31T12:09:23;6.50;;;2.20;;
5277;SDS011;2662;51.194;6.614;2023-05-31T12:11:50;6.07;;;2.53;;
5277;SDS011;2662;51.194;6.614;2023-05-31T12:14:17;8.93;;;2.47;;
5277;SDS011;2662;51.194;6.614;2023-05-31T12:16:45;4.43;;;2.30;;
5277;SDS011;2662;51.194;6.614;2023-05-31T12:19:14;5.30;;;2.10;;
5277;SDS011;2662;51.194;6.614;2023-05-31T12:21:41;8.40;;;2.30;;
5277;SDS011;2662;51.194;6.614;2023-05-31T12:24:11;7.03;;;2.57;;
5277;SDS011;2662;51.194;6.614;2023-05-31T12:26:39;9.77;;;2.87;;
5277;SDS011;2662;51.194;6.614;2023-05-31T12:29:06;3.27;;;2.40;;
5277;SDS011;2662;51.194;6.614;2023-05-31T12:31:33;9.13;;;1.80;;
5277;SDS011;2662;51.194;6.614;2023-05-31T12:34:05;6.50;;;2.60;;
5277;SDS011;2662;51.194;6.614;2023-05-31T12:36:40;9.90;;;2.63;;
5277;SDS011;2662;51.194;6.614;2023-05-31T12:39:08;9.00;;;2.20;;
5277;SDS011;2662;51.194;6.614;2023-05-31T12:41:37;7.50;;;2.80;;
5277;SDS011;2662;51.194;6.614;2023-05-31T12:44:07;3.90;;;2.47;;
5277;SDS011;2662;51.194;6.614;2023-05-31T12:46:37;5.00;;;2.30;;
5277;SDS011;2662;51.194;6.614;2023-05-31T12:49:14;4.90;;;2.47;;
5277;SDS011;2662;51.194;6.614;2023-05-31T12:51:46;5.00;;;2.20;;
5277;SDS011;2662;51.194;6.614;2023-05-31T12:54:13;5.57;;;2.60;;
5277;SDS011;2662;51.194;6.614;2023-05-31T12:56:44;14.33;;;2.03;;
5277;SDS011;2662;51.194;6.614;2023-05-31T12:59:11;6.30;;;2.07;;
5277;SDS011;2662;51.194;6.614;2023-05-31T13:01:37;13.97;;;2.67;;
5277;SDS011;2662;51.194;6.614;2023-05-31T13:04:05;6.57;;;2.33;;
5277;SDS011;2662;51.194;6.614;2023-05-31T13:06:32;6.10;;;2.63;;
5277;SDS011;2662;51.194;6.614;2023-05-31T13:09:00;8.07;;;2.80;;
5277;SDS011;2662;51.194;6.614;2023-05-31T13:11:29;5.13;;;2.60;;
5277;SDS011;2662;51.194;6.614;2023-05-31T13:13:58;6.80;;;2.50;;
5277;SDS011;2662;51.194;6.614;2023-05-31T13:16:25;14.03;;;2.70;;
5277;SDS011;2662;51.194;6.614;2023-05-31T13:18:54;4.97;;;2.20;;
5277;SDS011;2662;51.194;6.614;2023-05-31T13:21:21;22.13;;;3.00;;
5277;SDS011;2662;51.194;6.614;2023-05-31T13:23:47;6.37;;;2.43;;
5277;SDS011;2662;51.194;6.614;2023-05-31T13:26:14;7.80;;;2.27;;
5277;SDS011;2662;51.194;6.614;2023-05-31T13:28:41;6.33;;;2.37;;
5277;SDS011;2662;51.194;6.614;2023-05-31T13:31:09;8.70;;;2.50;;
5277;SDS011;2662;51.194;6.614;2023-05-31T13:33:36;3.60;;;2.13;;
5277;SDS011;2662;51.194;6.614;2023-05-31T13:36:03;4.17;;;2.40;;
5277;SDS011;2662;51.194;6.614;2023-05-31T13:38:30;7.10;;;2.30;;
5277;SDS011;2662;51.194;6.614;2023-05-31T13:40:57;3.70;;;2.33;;
5277;SDS011;2662;51.194;6.614;2023-05-31T13:43:24;10.00;;;2.73;;
5277;SDS011;2662;51.194;6.614;2023-05-31T13:45:51;9.70;;;3.00;;
5277;SDS011;2662;51.194;6.614;2023-05-31T13:48:19;7.60;;;2.90;;
5277;SDS011;2662;51.194;6.614;2023-05-31T13:50:46;7.67;;;2.63;;
5277;SDS011;2662;51.194;6.614;2023-05-31T13:53:13;11.20;;;2.50;;
5277;SDS011;2662;51.194;6.614;2023-05-31T13:55:40;7.87;;;2.60;;
5277;SDS011;2662;51.194;6.614;2023-05-31T13:58:07;2.97;;;2.67;;
5277;SDS011;2662;51.194;6.614;2023-05-31T14:00:33;3.93;;;2.37;;
5277;SDS011;2662;51.194;6.614;2023-05-31T14:03:00;10.70;;;3.00;;
5277;SDS011;2662;51.194;6.614;2023-05-31T14:05:29;6.57;;;3.00;;
5277;SDS011;2662;51.194;6.614;2023-05-31T14:07:55;5.93;;;2.73;;
5277;SDS011;2662;51.194;6.614;2023-05-31T14:10:24;16.10;;;2.73;;
5277;SDS011;2662;51.194;6.614;2023-05-31T14:12:51;5.10;;;2.40;;
5277;SDS011;2662;51.194;6.614;2023-05-31T14:15:17;5.60;;;2.77;;
5277;SDS011;2662;51.194;6.614;2023-05-31T14:17:44;4.03;;;2.87;;
5277;SDS011;2662;51.194;6.614;2023-05-31T14:20:11;3.77;;;2.30;;
5277;SDS011;2662;51.194;6.614;2023-05-31T14:22:39;4.60;;;2.10;;
5277;SDS011;2662;51.194;6.614;2023-05-31T14:25:06;4.20;;;2.20;;
5277;SDS011;2662;51.194;6.614;2023-05-31T14:27:33;6.73;;;2.67;;
5277;SDS011;2662;51.194;6.614;2023-05-31T14:30:00;10.87;;;2.40;;
5277;SDS011;2662;51.194;6.614;2023-05-31T14:32:27;6.10;;;2.60;;
5277;SDS011;2662;51.194;6.614;2023-05-31T14:34:54;6.13;;;2.13;;
5277;SDS011;2662;51.194;6.614;2023-05-31T14:37:20;7.33;;;2.90;;
5277;SDS011;2662;51.194;6.614;2023-05-31T14:39:48;7.20;;;2.40;;
5277;SDS011;2662;51.194;6.614;2023-05-31T14:42:15;8.83;;;2.30;;
5277;SDS011;2662;51.194;6.614;2023-05-31T14:44:42;6.10;;;2.03;;
5277;SDS011;2662;51.194;6.614;2023-05-31T14:47:09;4.13;;;2.27;;
5277;SDS011;2662;51.194;6.614;2023-05-31T14:49:36;7.90;;;2.80;;
5277;SDS011;2662;51.194;6.614;2023-05-31T14:52:03;9.40;;;2.60;;
5277;SDS011;2662;51.194;6.614;2023-05-31T14:54:32;11.20;;;2.47;;
5277;SDS011;2662;51.194;6.614;2023-05-31T14:57:00;8.90;;;2.80;;
5277;SDS011;2662;51.194;6.614;2023-05-31T14:59:27;5.77;;;2.40;;
5277;SDS011;2662;51.194;6.614;2023-05-31T15:01:54;7.37;;;2.47;;
5277;SDS011;2662;51.194;6.614;2023-05-31T15:04:22;4.23;;;2.50;;
5277;SDS011;2662;51.194;6.614;2023-05-31T15:06:50;14.57;;;2.77;;
5277;SDS011;2662;51.194;6.614;2023-05-31T15:09:17;8.83;;;2.83;;
5277;SDS011;2662;51.194;6.614;2023-05-31T15:11:45;4.90;;;2.30;;
5277;SDS011;2662;51.194;6.614;2023-05-31T15:14:13;13.07;;;2.70;;
5277;SDS011;2662;51.194;6.614;2023-05-31T15:16:40;6.67;;;2.63;;